sensor_id;sensor_type;location;lat;lon;timestamp;temperature;humidity
16243;DHT22;11719;51.052;6.982;2023-04-15T00:00:42;11.50;99.90
16243;DHT22;11719;51.052;6.982;2023-04-15T00:03:08;11.40;99.90
16243;DHT22;11719;51.052;6.982;2023-04-15T00:05:34;11.40;99.90
16243;DHT22;11719;51.052;6.982;2023-04-15T00:08:00;11.30;99.90
16243;DHT22;11719;51.052;6.982;2023-04-15T00:10:26;11.30;99.90
16243;DHT22;11719;51.052;6.982;2023-04-15T00:12:53;11.20;99.90
16243;DHT22;11719;51.052;6.982;2023-04-15T00:15:19;11.10;99.90
16243;DHT22;11719;51.052;6.982;2023-04-15T00:17:45;11.10;99.90
16243;DHT22;11719;51.052;6.982;2023-04-15T00:20:11;11.10;99.90
16243;DHT22;11719;51.052;6.982;2023-04-15T00:22:37;11.10;99.90
16243;DHT22;11719;51.052;6.982;2023-04-15T00:25:03;11.00;99.90
16243;DHT22;11719;51.052;6.982;2023-04-15T00:27:29;11.00;99.90
16243;DHT22;11719;51.052;6.982;2023-04-15T00:29:55;10.90;99.90
16243;DHT22;11719;51.052;6.982;2023-04-15T00:32:21;10.90;99.90
16243;DHT22;11719;51.052;6.982;2023-04-15T00:34:47;10.90;99.90
16243;DHT22;11719;51.052;6.982;2023-04-15T00:37:14;10.90;99.90
16243;DHT22;11719;51.052;6.982;2023-04-15T00:39:40;10.90;99.90
16243;DHT22;11719;51.052;6.982;2023-04-15T00:42:06;10.80;99.90
16243;DHT22;11719;51.052;6.982;2023-04-15T00:44:32;10.80;99.90
16243;DHT22;11719;51.052;6.982;2023-04-15T00:46:59;10.80;99.90
16243;DHT22;11719;51.052;6.982;2023-04-15T00:49:26;10.70;99.90
16243;DHT22;11719;51.052;6.982;2023-04-15T00:51:53;10.70;99.90
16243;DHT22;11719;51.052;6.982;2023-04-15T00:54:19;10.70;99.90
16243;DHT22;11719;51.052;6.982;2023-04-15T00:56:46;10.60;99.90
16243;DHT22;11719;51.052;6.982;2023-04-15T00:59:12;10.60;99.90
16243;DHT22;11719;51.052;6.982;2023-04-15T01:01:39;10.60;99.90
16243;DHT22;11719;51.052;6.982;2023-04-15T01:04:05;10.50;99.90
16243;DHT22;11719;51.052;6.982;2023-04-15T01:06:31;10.50;99.90
16243;DHT22;11719;51.052;6.982;2023-04-15T01:08:59;10.50;99.90
16243;DHT22;11719;51.052;6.982;2023-04-15T01:11:25;10.40;99.90
16243;DHT22;11719;51.052;6.982;2023-04-15T01:13:52;10.40;99.90
16243;DHT22;11719;51.052;6.982;2023-04-15T01:16:20;10.40;99.90
16243;DHT22;11719;51.052;6.982;2023-04-15T01:18:46;10.40;99.90
16243;DHT22;11719;51.052;6.982;2023-04-15T01:21:13;10.30;99.90
16243;DHT22;11719;51.052;6.982;2023-04-15T01:23:39;10.30;99.90
16243;DHT22;11719;51.052;6.982;2023-04-15T01:26:06;10.30;99.90
16243;DHT22;11719;51.052;6.982;2023-04-15T01:28:33;10.20;99.90
16243;DHT22;11719;51.052;6.982;2023-04-15T01:31:11;10.20;99.90
16243;DHT22;11719;51.052;6.982;2023-04-15T01:33:41;10.20;99.90
16243;DHT22;11719;51.052;6.982;2023-04-15T01:36:09;10.20;99.90
16243;DHT22;11719;51.052;6.982;2023-04-15T01:38:36;10.20;99.90
16243;DHT22;11719;51.052;6.982;2023-04-15T01:41:02;10.10;99.90
16243;DHT22;11719;51.052;6.982;2023-04-15T01:43:29;10.10;99.90
16243;DHT22;11719;51.052;6.982;2023-04-15T01:45:55;10.10;99.90
16243;DHT22;11719;51.052;6.982;2023-04-15T01:48:21;10.00;99.90
16243;DHT22;11719;51.052;6.982;2023-04-15T01:50:47;10.00;99.90
16243;DHT22;11719;51.052;6.982;2023-04-15T01:53:13;10.00;99.90
16243;DHT22;11719;51.052;6.982;2023-04-15T01:55:40;9.90;99.90
16243;DHT22;11719;51.052;6.982;2023-04-15T01:58:06;9.90;99.90
16243;DHT22;11719;51.052;6.982;2023-04-15T02:00:32;9.90;99.90
16243;DHT22;11719;51.052;6.982;2023-04-15T02:02:58;9.90;99.90
16243;DHT22;11719;51.052;6.982;2023-04-15T02:05:24;9.80;99.90
16243;DHT22;11719;51.052;6.982;2023-04-15T02:07:50;9.80;99.90
16243;DHT22;11719;51.052;6.982;2023-04-15T02:10:16;9.80;99.90
16243;DHT22;11719;51.052;6.982;2023-04-15T02:12:42;9.70;99.90
16243;DHT22;11719;51.052;6.982;2023-04-15T02:15:08;9.70;99.90
16243;DHT22;11719;51.052;6.982;2023-04-15T02:17:35;9.70;99.90
16243;DHT22;11719;51.052;6.982;2023-04-15T02:20:02;9.70;99.90
16243;DHT22;11719;51.052;6.982;2023-04-15T02:22:33;9.70;99.90
16243;DHT22;11719;51.052;6.982;2023-04-15T02:24:59;9.60;99.90
16243;DHT22;11719;51.052;6.982;2023-04-15T02:27:25;9.60;99.90
16243;DHT22;11719;51.052;6.982;2023-04-15T02:29:51;9.60;99.90
16243;DHT22;11719;51.052;6.982;2023-04-15T02:32:16;9.60;99.90
16243;DHT22;11719;51.052;6.982;2023-04-15T02:34:43;9.60;99.90
16243;DHT22;11719;51.052;6.982;2023-04-15T02:37:10;9.50;99.90
16243;DHT22;11719;51.052;6.982;2023-04-15T02:39:37;9.50;99.90
16243;DHT22;11719;51.052;6.982;2023-04-15T02:42:03;9.50;99.90
16243;DHT22;11719;51.052;6.982;2023-04-15T02:44:31;9.50;99.90
16243;DHT22;11719;51.052;6.982;2023-04-15T02:46:58;9.50;99.90
16243;DHT22;11719;51.052;6.982;2023-04-15T02:49:24;9.50;99.90
16243;DHT22;11719;51.052;6.982;2023-04-15T02:51:50;9.40;99.90
16243;DHT22;11719;51.052;6.982;2023-04-15T02:54:20;9.40;99.90
16243;DHT22;11719;51.052;6.982;2023-04-15T02:56:50;9.40;99.90
16243;DHT22;11719;51.052;6.982;2023-04-15T02:59:19;9.40;99.90
16243;DHT22;11719;51.052;6.982;2023-04-15T03:01:45;9.30;99.90
16243;DHT22;11719;51.052;6.982;2023-04-15T03:04:11;9.30;99.90
16243;DHT22;11719;51.052;6.982;2023-04-15T03:06:37;9.30;99.90
16243;DHT22;11719;51.052;6.982;2023-04-15T03:09:03;9.20;99.90
16243;DHT22;11719;51.052;6.982;2023-04-15T03:11:29;9.20;99.90
16243;DHT22;11719;51.052;6.982;2023-04-15T03:13:56;9.20;99.90
16243;DHT22;11719;51.052;6.982;2023-04-15T03:16:23;9.20;99.90
16243;DHT22;11719;51.052;6.982;2023-04-15T03:18:49;9.10;99.90
16243;DHT22;11719;51.052;6.982;2023-04-15T03:21:15;9.10;99.90
16243;DHT22;11719;51.052;6.982;2023-04-15T03:23:40;9.10;99.90
16243;DHT22;11719;51.052;6.982;2023-04-15T03:26:06;9.10;99.90
16243;DHT22;11719;51.052;6.982;2023-04-15T03:28:32;9.10;99.90
16243;DHT22;11719;51.052;6.982;2023-04-15T03:30:58;9.10;99.90
16243;DHT22;11719;51.052;6.982;2023-04-15T03:33:24;9.20;99.90
16243;DHT22;11719;51.052;6.982;2023-04-15T03:35:50;9.10;99.90
16243;DHT22;11719;51.052;6.982;2023-04-15T03:38:17;9.10;99.90
16243;DHT22;11719;51.052;6.982;2023-04-15T03:40:44;9.00;99.90
16243;DHT22;11719;51.052;6.982;2023-04-15T03:43:10;9.00;99.90
16243;DHT22;11719;51.052;6.982;2023-04-15T03:45:36;9.00;99.90
16243;DHT22;11719;51.052;6.982;2023-04-15T03:48:02;8.90;99.90
16243;DHT22;11719;51.052;6.982;2023-04-15T03:50:28;8.90;99.90
16243;DHT22;11719;51.052;6.982;2023-04-15T03:52:54;9.00;99.90
16243;DHT22;11719;51.052;6.982;2023-04-15T03:55:20;9.00;99.90
16243;DHT22;11719;51.052;6.982;2023-04-15T03:57:45;8.90;99.90
16243;DHT22;11719;51.052;6.982;2023-04-15T04:00:11;8.90;99.90
16243;DHT22;11719;51.052;6.982;2023-04-15T04:02:37;8.80;99.90
16243;DHT22;11719;51.052;6.982;2023-04-15T04:05:03;8.80;99.90
16243;DHT22;11719;51.052;6.982;2023-04-15T04:07:29;8.80;99.90
16243;DHT22;11719;51.052;6.982;2023-04-15T04:09:58;8.80;99.90
16243;DHT22;11719;51.052;6.982;2023-04-15T04:12:23;8.80;99.90
16243;DHT22;11719;51.052;6.982;2023-04-15T04:14:49;8.80;99.90
16243;DHT22;11719;51.052;6.982;2023-04-15T04:17:15;8.80;99.90
16243;DHT22;11719;51.052;6.982;2023-04-15T04:19:41;8.80;99.90
16243;DHT22;11719;51.052;6.982;2023-04-15T04:22:07;8.70;99.90
16243;DHT22;11719;51.052;6.982;2023-04-15T04:24:32;8.60;99.90
16243;DHT22;11719;51.052;6.982;2023-04-15T04:26:58;8.60;99.90
16243;DHT22;11719;51.052;6.982;2023-04-15T04:29:25;8.60;99.90
16243;DHT22;11719;51.052;6.982;2023-04-15T04:31:51;8.70;99.90
16243;DHT22;11719;51.052;6.982;2023-04-15T04:34:17;8.70;99.90
16243;DHT22;11719;51.052;6.982;2023-04-15T04:36:42;8.70;99.90
16243;DHT22;11719;51.052;6.982;2023-04-15T04:39:08;8.70;99.90
16243;DHT22;11719;51.052;6.982;2023-04-15T04:41:34;8.60;99.90
16243;DHT22;11719;51.052;6.982;2023-04-15T04:44:00;8.60;99.90
16243;DHT22;11719;51.052;6.982;2023-04-15T04:46:26;8.50;99.90
16243;DHT22;11719;51.052;6.982;2023-04-15T04:48:52;8.50;99.90
16243;DHT22;11719;51.052;6.982;2023-04-15T04:51:18;8.60;99.90
16243;DHT22;11719;51.052;6.982;2023-04-15T04:53:43;8.70;99.90
16243;DHT22;11719;51.052;6.982;2023-04-15T04:56:10;8.70;99.90
16243;DHT22;11719;51.052;6.982;2023-04-15T04:58:35;8.70;99.90
16243;DHT22;11719;51.052;6.982;2023-04-15T05:01:02;8.70;99.90
16243;DHT22;11719;51.052;6.982;2023-04-15T05:03:28;8.60;99.90
16243;DHT22;11719;51.052;6.982;2023-04-15T05:05:54;8.50;99.90
16243;DHT22;11719;51.052;6.982;2023-04-15T05:08:20;8.50;99.90
16243;DHT22;11719;51.052;6.982;2023-04-15T05:10:46;8.60;99.90
16243;DHT22;11719;51.052;6.982;2023-04-15T05:13:12;8.50;99.90
16243;DHT22;11719;51.052;6.982;2023-04-15T05:15:38;8.50;99.90
16243;DHT22;11719;51.052;6.982;2023-04-15T05:18:05;8.50;99.90
16243;DHT22;11719;51.052;6.982;2023-04-15T05:20:31;8.50;99.90
16243;DHT22;11719;51.052;6.982;2023-04-15T05:22:57;8.40;99.90
16243;DHT22;11719;51.052;6.982;2023-04-15T05:25:23;8.50;99.90
16243;DHT22;11719;51.052;6.982;2023-04-15T05:27:49;8.40;99.90
16243;DHT22;11719;51.052;6.982;2023-04-15T05:30:14;8.50;99.90
16243;DHT22;11719;51.052;6.982;2023-04-15T05:32:41;8.50;99.90
16243;DHT22;11719;51.052;6.982;2023-04-15T05:35:07;8.60;99.90
16243;DHT22;11719;51.052;6.982;2023-04-15T05:37:33;8.60;99.90
16243;DHT22;11719;51.052;6.982;2023-04-15T05:39:58;8.60;99.90
16243;DHT22;11719;51.052;6.982;2023-04-15T05:42:24;8.70;99.90
16243;DHT22;11719;51.052;6.982;2023-04-15T05:44:50;8.70;99.90
16243;DHT22;11719;51.052;6.982;2023-04-15T05:47:16;8.80;99.90
16243;DHT22;11719;51.052;6.982;2023-04-15T05:49:42;8.80;99.90
16243;DHT22;11719;51.052;6.982;2023-04-15T05:52:07;8.80;99.90
16243;DHT22;11719;51.052;6.982;2023-04-15T05:54:33;8.90;99.90
16243;DHT22;11719;51.052;6.982;2023-04-15T05:56:59;9.00;99.90
16243;DHT22;11719;51.052;6.982;2023-04-15T05:59:25;9.00;99.90
16243;DHT22;11719;51.052;6.982;2023-04-15T06:01:52;9.00;99.90
16243;DHT22;11719;51.052;6.982;2023-04-15T06:04:18;9.10;99.90
16243;DHT22;11719;51.052;6.982;2023-04-15T06:06:44;9.20;99.90
16243;DHT22;11719;51.052;6.982;2023-04-15T06:09:10;9.30;99.90
16243;DHT22;11719;51.052;6.982;2023-04-15T06:11:36;9.40;99.90
16243;DHT22;11719;51.052;6.982;2023-04-15T06:14:02;9.50;99.90
16243;DHT22;11719;51.052;6.982;2023-04-15T06:16:27;9.60;99.90
16243;DHT22;11719;51.052;6.982;2023-04-15T06:18:53;9.80;99.90
16243;DHT22;11719;51.052;6.982;2023-04-15T06:21:19;9.90;99.90
16243;DHT22;11719;51.052;6.982;2023-04-15T06:23:45;10.00;99.90
16243;DHT22;11719;51.052;6.982;2023-04-15T06:26:11;10.10;99.90
16243;DHT22;11719;51.052;6.982;2023-04-15T06:28:37;10.20;99.90
16243;DHT22;11719;51.052;6.982;2023-04-15T06:31:02;10.30;99.90
16243;DHT22;11719;51.052;6.982;2023-04-15T06:33:28;10.40;99.90
16243;DHT22;11719;51.052;6.982;2023-04-15T06:35:54;10.50;99.90
16243;DHT22;11719;51.052;6.982;2023-04-15T06:38:20;10.60;99.90
16243;DHT22;11719;51.052;6.982;2023-04-15T06:40:45;10.80;99.90
16243;DHT22;11719;51.052;6.982;2023-04-15T06:43:11;10.90;99.90
16243;DHT22;11719;51.052;6.982;2023-04-15T06:45:37;11.00;99.90
16243;DHT22;11719;51.052;6.982;2023-04-15T06:48:03;11.10;99.90
16243;DHT22;11719;51.052;6.982;2023-04-15T06:50:29;11.20;99.90
16243;DHT22;11719;51.052;6.982;2023-04-15T06:52:55;11.40;99.90
16243;DHT22;11719;51.052;6.982;2023-04-15T06:55:21;11.50;99.90
16243;DHT22;11719;51.052;6.982;2023-04-15T06:57:47;11.60;99.90
16243;DHT22;11719;51.052;6.982;2023-04-15T07:00:13;11.70;99.90
16243;DHT22;11719;51.052;6.982;2023-04-15T07:02:40;11.90;99.90
16243;DHT22;11719;51.052;6.982;2023-04-15T07:05:06;12.00;99.90
16243;DHT22;11719;51.052;6.982;2023-04-15T07:07:32;12.10;99.90
16243;DHT22;11719;51.052;6.982;2023-04-15T07:09:58;12.20;99.90
16243;DHT22;11719;51.052;6.982;2023-04-15T07:12:26;12.30;99.90
16243;DHT22;11719;51.052;6.982;2023-04-15T07:14:52;12.40;99.90
16243;DHT22;11719;51.052;6.982;2023-04-15T07:17:17;12.50;99.90
16243;DHT22;11719;51.052;6.982;2023-04-15T07:19:43;12.60;99.90
16243;DHT22;11719;51.052;6.982;2023-04-15T07:22:09;12.70;99.90
16243;DHT22;11719;51.052;6.982;2023-04-15T07:24:35;12.90;99.90
16243;DHT22;11719;51.052;6.982;2023-04-15T07:27:01;13.10;99.90
16243;DHT22;11719;51.052;6.982;2023-04-15T07:29:27;13.20;99.90
16243;DHT22;11719;51.052;6.982;2023-04-15T07:31:53;13.50;99.90
16243;DHT22;11719;51.052;6.982;2023-04-15T07:34:19;13.80;99.90
16243;DHT22;11719;51.052;6.982;2023-04-15T07:40:01;14.40;99.90
16243;DHT22;11719;51.052;6.982;2023-04-15T07:42:26;14.90;99.90
16243;DHT22;11719;51.052;6.982;2023-04-15T07:44:53;15.20;99.90
16243;DHT22;11719;51.052;6.982;2023-04-15T07:47:19;15.40;99.90
16243;DHT22;11719;51.052;6.982;2023-04-15T07:49:45;15.70;99.90
16243;DHT22;11719;51.052;6.982;2023-04-15T07:52:11;15.80;99.90
16243;DHT22;11719;51.052;6.982;2023-04-15T07:54:37;15.90;99.90
16243;DHT22;11719;51.052;6.982;2023-04-15T07:57:03;15.90;99.90
16243;DHT22;11719;51.052;6.982;2023-04-15T07:59:29;15.90;99.90
16243;DHT22;11719;51.052;6.982;2023-04-15T08:01:55;16.00;99.90
16243;DHT22;11719;51.052;6.982;2023-04-15T08:04:21;16.10;99.90
16243;DHT22;11719;51.052;6.982;2023-04-15T08:06:48;16.20;99.90
16243;DHT22;11719;51.052;6.982;2023-04-15T08:09:15;16.20;99.90
16243;DHT22;11719;51.052;6.982;2023-04-15T08:11:41;16.30;99.50
16243;DHT22;11719;51.052;6.982;2023-04-15T08:14:07;16.30;99.00
16243;DHT22;11719;51.052;6.982;2023-04-15T08:16:32;16.30;99.20
16243;DHT22;11719;51.052;6.982;2023-04-15T08:18:58;16.30;99.00
16243;DHT22;11719;51.052;6.982;2023-04-15T08:21:24;16.30;98.40
16243;DHT22;11719;51.052;6.982;2023-04-15T08:23:52;16.10;97.10
16243;DHT22;11719;51.052;6.982;2023-04-15T08:26:19;16.10;99.00
16243;DHT22;11719;51.052;6.982;2023-04-15T08:28:46;16.20;98.20
16243;DHT22;11719;51.052;6.982;2023-04-15T08:31:16;16.20;99.10
16243;DHT22;11719;51.052;6.982;2023-04-15T08:33:43;16.20;97.70
16243;DHT22;11719;51.052;6.982;2023-04-15T08:36:09;16.30;98.70
16243;DHT22;11719;51.052;6.982;2023-04-15T08:38:35;16.30;98.50
16243;DHT22;11719;51.052;6.982;2023-04-15T08:41:11;16.40;97.80
16243;DHT22;11719;51.052;6.982;2023-04-15T08:43:48;16.40;98.30
16243;DHT22;11719;51.052;6.982;2023-04-15T08:46:18;16.40;98.00
16243;DHT22;11719;51.052;6.982;2023-04-15T08:48:46;16.20;97.10
16243;DHT22;11719;51.052;6.982;2023-04-15T08:51:13;16.20;98.10
16243;DHT22;11719;51.052;6.982;2023-04-15T08:53:44;16.30;97.30
16243;DHT22;11719;51.052;6.982;2023-04-15T08:56:13;16.30;98.20
16243;DHT22;11719;51.052;6.982;2023-04-15T08:58:44;16.30;98.30
16243;DHT22;11719;51.052;6.982;2023-04-15T09:01:11;16.30;98.10
16243;DHT22;11719;51.052;6.982;2023-04-15T09:03:38;16.40;97.80
16243;DHT22;11719;51.052;6.982;2023-04-15T09:06:05;16.40;97.30
16243;DHT22;11719;51.052;6.982;2023-04-15T09:08:32;16.30;97.40
16243;DHT22;11719;51.052;6.982;2023-04-15T09:11:01;16.30;97.90
16243;DHT22;11719;51.052;6.982;2023-04-15T09:13:28;16.30;97.90
16243;DHT22;11719;51.052;6.982;2023-04-15T09:15:55;16.30;97.90
16243;DHT22;11719;51.052;6.982;2023-04-15T09:18:30;16.40;97.90
16243;DHT22;11719;51.052;6.982;2023-04-15T09:21:14;16.40;97.80
16243;DHT22;11719;51.052;6.982;2023-04-15T09:23:58;16.50;96.50
16243;DHT22;11719;51.052;6.982;2023-04-15T09:26:36;16.50;96.40
16243;DHT22;11719;51.052;6.982;2023-04-15T09:29:09;16.20;96.70
16243;DHT22;11719;51.052;6.982;2023-04-15T09:31:38;16.20;98.10
16243;DHT22;11719;51.052;6.982;2023-04-15T09:34:05;16.30;97.40
16243;DHT22;11719;51.052;6.982;2023-04-15T09:39:12;16.20;97.30
16243;DHT22;11719;51.052;6.982;2023-04-15T09:41:38;16.10;98.00
16243;DHT22;11719;51.052;6.982;2023-04-15T09:44:05;16.20;98.20
16243;DHT22;11719;51.052;6.982;2023-04-15T09:46:44;16.30;98.00
16243;DHT22;11719;51.052;6.982;2023-04-15T09:49:11;16.30;98.10
16243;DHT22;11719;51.052;6.982;2023-04-15T09:51:38;16.30;98.00
16243;DHT22;11719;51.052;6.982;2023-04-15T09:54:04;16.40;97.60
16243;DHT22;11719;51.052;6.982;2023-04-15T09:56:37;16.30;97.90
16243;DHT22;11719;51.052;6.982;2023-04-15T09:59:08;16.30;97.90
16243;DHT22;11719;51.052;6.982;2023-04-15T10:01:35;16.30;97.90
16243;DHT22;11719;51.052;6.982;2023-04-15T10:04:04;16.30;98.00
16243;DHT22;11719;51.052;6.982;2023-04-15T10:06:31;16.30;98.00
16243;DHT22;11719;51.052;6.982;2023-04-15T10:08:58;16.20;98.20
16243;DHT22;11719;51.052;6.982;2023-04-15T10:11:27;16.20;97.80
16243;DHT22;11719;51.052;6.982;2023-04-15T10:13:55;16.20;98.30
16243;DHT22;11719;51.052;6.982;2023-04-15T10:16:27;16.20;98.20
16243;DHT22;11719;51.052;6.982;2023-04-15T10:18:55;16.20;98.30
16243;DHT22;11719;51.052;6.982;2023-04-15T10:21:22;16.30;98.30
16243;DHT22;11719;51.052;6.982;2023-04-15T10:23:48;16.40;98.20
16243;DHT22;11719;51.052;6.982;2023-04-15T10:26:15;16.50;98.00
16243;DHT22;11719;51.052;6.982;2023-04-15T10:28:43;16.50;97.90
16243;DHT22;11719;51.052;6.982;2023-04-15T10:31:11;16.50;97.80
16243;DHT22;11719;51.052;6.982;2023-04-15T10:33:40;16.50;97.60
16243;DHT22;11719;51.052;6.982;2023-04-15T10:36:07;16.40;97.90
16243;DHT22;11719;51.052;6.982;2023-04-15T10:41:22;16.30;98.30
16243;DHT22;11719;51.052;6.982;2023-04-15T10:46:43;16.30;98.20
16243;DHT22;11719;51.052;6.982;2023-04-15T10:49:13;16.20;98.50
16243;DHT22;11719;51.052;6.982;2023-04-15T10:52:00;16.30;98.30
16243;DHT22;11719;51.052;6.982;2023-04-15T10:59:32;16.20;99.00
16243;DHT22;11719;51.052;6.982;2023-04-15T11:02:05;16.20;98.80
16243;DHT22;11719;51.052;6.982;2023-04-15T11:04:54;16.20;98.70
16243;DHT22;11719;51.052;6.982;2023-04-15T11:07:46;16.30;98.60
16243;DHT22;11719;51.052;6.982;2023-04-15T11:12:43;16.50;98.20
16243;DHT22;11719;51.052;6.982;2023-04-15T11:18:07;16.50;98.10
16243;DHT22;11719;51.052;6.982;2023-04-15T11:20:37;16.40;98.40
16243;DHT22;11719;51.052;6.982;2023-04-15T11:23:04;16.50;98.40
16243;DHT22;11719;51.052;6.982;2023-04-15T11:25:32;16.50;98.40
16243;DHT22;11719;51.052;6.982;2023-04-15T11:28:00;16.50;98.40
16243;DHT22;11719;51.052;6.982;2023-04-15T11:30:30;16.50;98.30
16243;DHT22;11719;51.052;6.982;2023-04-15T11:33:06;16.60;98.30
16243;DHT22;11719;51.052;6.982;2023-04-15T11:35:34;16.60;98.60
16243;DHT22;11719;51.052;6.982;2023-04-15T11:38:04;16.50;98.60
16243;DHT22;11719;51.052;6.982;2023-04-15T11:40:33;16.60;98.60
16243;DHT22;11719;51.052;6.982;2023-04-15T11:43:26;16.50;99.00
16243;DHT22;11719;51.052;6.982;2023-04-15T11:45:58;16.60;98.40
16243;DHT22;11719;51.052;6.982;2023-04-15T11:48:31;16.70;98.20
16243;DHT22;11719;51.052;6.982;2023-04-15T11:51:01;16.50;99.30
16243;DHT22;11719;51.052;6.982;2023-04-15T11:53:40;16.50;98.80
16243;DHT22;11719;51.052;6.982;2023-04-15T11:56:19;16.60;98.40
16243;DHT22;11719;51.052;6.982;2023-04-15T11:58:53;16.60;98.70
16243;DHT22;11719;51.052;6.982;2023-04-15T12:01:37;16.50;99.60
16243;DHT22;11719;51.052;6.982;2023-04-15T12:04:16;16.50;98.80
16243;DHT22;11719;51.052;6.982;2023-04-15T12:06:48;16.50;98.80
16243;DHT22;11719;51.052;6.982;2023-04-15T12:09:15;16.50;99.30
16243;DHT22;11719;51.052;6.982;2023-04-15T12:11:49;16.40;99.70
16243;DHT22;11719;51.052;6.982;2023-04-15T12:14:25;16.30;99.90
16243;DHT22;11719;51.052;6.982;2023-04-15T12:16:59;16.40;98.90
16243;DHT22;11719;51.052;6.982;2023-04-15T12:19:38;16.40;99.90
16243;DHT22;11719;51.052;6.982;2023-04-15T12:22:11;16.40;99.20
16243;DHT22;11719;51.052;6.982;2023-04-15T12:24:38;16.30;99.90
16243;DHT22;11719;51.052;6.982;2023-04-15T12:27:07;16.30;99.60
16243;DHT22;11719;51.052;6.982;2023-04-15T12:29:37;16.20;99.90
16243;DHT22;11719;51.052;6.982;2023-04-15T12:32:06;16.20;99.60
16243;DHT22;11719;51.052;6.982;2023-04-15T12:34:35;16.20;99.90
16243;DHT22;11719;51.052;6.982;2023-04-15T12:37:04;16.10;99.90
16243;DHT22;11719;51.052;6.982;2023-04-15T12:39:34;16.00;99.90
16243;DHT22;11719;51.052;6.982;2023-04-15T12:42:03;15.80;99.90
16243;DHT22;11719;51.052;6.982;2023-04-15T12:44:30;15.90;99.90
16243;DHT22;11719;51.052;6.982;2023-04-15T12:46:57;16.00;99.90
16243;DHT22;11719;51.052;6.982;2023-04-15T12:49:25;15.90;99.90
16243;DHT22;11719;51.052;6.982;2023-04-15T12:51:55;15.70;99.90
16243;DHT22;11719;51.052;6.982;2023-04-15T12:54:22;15.70;99.90
16243;DHT22;11719;51.052;6.982;2023-04-15T12:56:49;15.70;99.90
16243;DHT22;11719;51.052;6.982;2023-04-15T12:59:16;15.90;99.90
16243;DHT22;11719;51.052;6.982;2023-04-15T13:01:43;15.90;99.90
16243;DHT22;11719;51.052;6.982;2023-04-15T13:04:20;15.90;99.90
16243;DHT22;11719;51.052;6.982;2023-04-15T13:06:46;15.80;99.90
16243;DHT22;11719;51.052;6.982;2023-04-15T13:09:12;15.70;99.90
16243;DHT22;11719;51.052;6.982;2023-04-15T13:11:38;15.60;99.90
16243;DHT22;11719;51.052;6.982;2023-04-15T13:14:06;15.70;99.90
16243;DHT22;11719;51.052;6.982;2023-04-15T13:16:33;15.70;99.90
16243;DHT22;11719;51.052;6.982;2023-04-15T13:19:01;15.80;99.90
16243;DHT22;11719;51.052;6.982;2023-04-15T13:21:28;15.70;99.90
16243;DHT22;11719;51.052;6.982;2023-04-15T13:23:55;15.70;99.90
16243;DHT22;11719;51.052;6.982;2023-04-15T13:26:22;15.80;99.90
16243;DHT22;11719;51.052;6.982;2023-04-15T13:28:49;15.80;99.90
16243;DHT22;11719;51.052;6.982;2023-04-15T13:31:15;15.80;99.90
16243;DHT22;11719;51.052;6.982;2023-04-15T13:33:42;15.90;99.90
16243;DHT22;11719;51.052;6.982;2023-04-15T13:36:08;15.80;99.90
16243;DHT22;11719;51.052;6.982;2023-04-15T13:38:35;15.70;99.90
16243;DHT22;11719;51.052;6.982;2023-04-15T13:41:03;15.80;99.90
16243;DHT22;11719;51.052;6.982;2023-04-15T13:43:29;15.80;99.90
16243;DHT22;11719;51.052;6.982;2023-04-15T13:45:54;15.90;99.90
16243;DHT22;11719;51.052;6.982;2023-04-15T13:48:20;16.00;99.90
16243;DHT22;11719;51.052;6.982;2023-04-15T13:50:46;16.20;99.90
16243;DHT22;11719;51.052;6.982;2023-04-15T13:53:12;16.20;99.90
16243;DHT22;11719;51.052;6.982;2023-04-15T13:55:38;16.30;99.90
16243;DHT22;11719;51.052;6.982;2023-04-15T13:58:09;16.30;99.90
16243;DHT22;11719;51.052;6.982;2023-04-15T14:00:36;16.30;99.90
16243;DHT22;11719;51.052;6.982;2023-04-15T14:03:04;16.30;99.90
16243;DHT22;11719;51.052;6.982;2023-04-15T14:05:32;16.30;99.90
16243;DHT22;11719;51.052;6.982;2023-04-15T14:08:00;16.20;99.90
16243;DHT22;11719;51.052;6.982;2023-04-15T14:10:26;16.20;99.90
16243;DHT22;11719;51.052;6.982;2023-04-15T14:12:52;16.30;99.90
16243;DHT22;11719;51.052;6.982;2023-04-15T14:15:20;16.20;99.90
16243;DHT22;11719;51.052;6.982;2023-04-15T14:17:46;16.30;99.90
16243;DHT22;11719;51.052;6.982;2023-04-15T14:20:13;16.20;99.90
16243;DHT22;11719;51.052;6.982;2023-04-15T14:22:40;16.10;99.90
16243;DHT22;11719;51.052;6.982;2023-04-15T14:25:07;16.10;99.90
16243;DHT22;11719;51.052;6.982;2023-04-15T14:27:37;15.90;99.90
16243;DHT22;11719;51.052;6.982;2023-04-15T14:30:05;16.10;99.90
16243;DHT22;11719;51.052;6.982;2023-04-15T14:32:32;16.00;99.90
16243;DHT22;11719;51.052;6.982;2023-04-15T14:35:00;16.00;99.90
16243;DHT22;11719;51.052;6.982;2023-04-15T14:37:29;15.90;99.90
16243;DHT22;11719;51.052;6.982;2023-04-15T14:39:57;15.90;99.90
16243;DHT22;11719;51.052;6.982;2023-04-15T14:42:24;15.80;99.90
16243;DHT22;11719;51.052;6.982;2023-04-15T14:44:51;15.90;99.90
16243;DHT22;11719;51.052;6.982;2023-04-15T14:47:18;15.80;99.90
16243;DHT22;11719;51.052;6.982;2023-04-15T14:49:45;15.80;99.90
16243;DHT22;11719;51.052;6.982;2023-04-15T14:52:11;15.80;99.90
16243;DHT22;11719;51.052;6.982;2023-04-15T14:54:42;15.70;99.90
16243;DHT22;11719;51.052;6.982;2023-04-15T14:57:11;15.70;99.90
16243;DHT22;11719;51.052;6.982;2023-04-15T14:59:38;15.80;99.90
16243;DHT22;11719;51.052;6.982;2023-04-15T15:02:04;15.80;99.90
16243;DHT22;11719;51.052;6.982;2023-04-15T15:04:31;15.60;99.90
16243;DHT22;11719;51.052;6.982;2023-04-15T15:06:59;15.60;99.90
16243;DHT22;11719;51.052;6.982;2023-04-15T15:09:26;15.50;99.90
16243;DHT22;11719;51.052;6.982;2023-04-15T15:11:54;15.60;99.90
16243;DHT22;11719;51.052;6.982;2023-04-15T15:14:21;15.60;99.90
16243;DHT22;11719;51.052;6.982;2023-04-15T15:16:47;15.50;99.90
16243;DHT22;11719;51.052;6.982;2023-04-15T15:19:13;15.40;99.90
16243;DHT22;11719;51.052;6.982;2023-04-15T15:21:39;15.50;99.90
16243;DHT22;11719;51.052;6.982;2023-04-15T15:24:05;15.50;99.90
16243;DHT22;11719;51.052;6.982;2023-04-15T15:26:31;15.60;99.90
16243;DHT22;11719;51.052;6.982;2023-04-15T15:28:57;15.40;99.90
16243;DHT22;11719;51.052;6.982;2023-04-15T15:31:23;15.50;99.90
16243;DHT22;11719;51.052;6.982;2023-04-15T15:33:49;15.60;99.90
16243;DHT22;11719;51.052;6.982;2023-04-15T15:36:16;15.60;99.90
16243;DHT22;11719;51.052;6.982;2023-04-15T15:38:41;15.70;99.90
16243;DHT22;11719;51.052;6.982;2023-04-15T15:41:07;15.70;99.90
16243;DHT22;11719;51.052;6.982;2023-04-15T15:43:33;15.80;99.90
16243;DHT22;11719;51.052;6.982;2023-04-15T15:46:00;15.90;99.90
16243;DHT22;11719;51.052;6.982;2023-04-15T15:48:25;15.80;99.90
16243;DHT22;11719;51.052;6.982;2023-04-15T15:50:51;15.60;99.90
16243;DHT22;11719;51.052;6.982;2023-04-15T15:53:17;15.50;99.90
16243;DHT22;11719;51.052;6.982;2023-04-15T15:55:46;15.50;99.90
16243;DHT22;11719;51.052;6.982;2023-04-15T15:58:12;15.60;99.90